Time;durP1;ratioP1;P1;durP2;ratioP2;P2;SDS_P1;SDS_P2;PMS_P1;PMS_P2;Temp;Humidity;BMP_temperature;BMP_pressure;BME280_temperature;BME280_humidity;BME280_pressure;Samples;Min_cycle;Max_cycle;Signal;HPM_P1;HPM_P2
2023/03/30 00:02:05;;;;;;;;;;;;;;;0.63;48.37;101696.85;107646;1253;107813;-63
2023/03/30 00:04:36;;;;;;;;;;;;;;;0.59;48.80;101699.98;107670;1254;97925;-64
2023/03/30 00:07:04;;;;;;;;;;;;;;;0.51;48.90;101698.46;107706;1254;97912;-64
2023/03/30 00:09:33;;;;;;;;;;;;;;;0.43;49.22;101699.96;107688;1254;111146;-63
2023/03/30 00:12:02;;;;;;;;;;;;;;;0.38;49.19;101702.56;107656;1253;109865;-62
2023/03/30 00:14:36;;;;;;;;;;;;;;;0.38;49.14;101700.64;107639;1254;108636;-64
2023/03/30 00:17:05;;;;;;;;;;;;;;;0.40;49.23;101701.28;107676;1254;97830;-63
2023/03/30 00:19:37;;;;;;;;;;;;;;;0.42;49.22;101698.39;107715;1252;97812;-64
2023/03/30 00:22:06;;;;;;;;;;;;;;;0.45;48.94;101699.52;107707;1254;111310;-64
2023/03/30 00:24:35;;;;;;;;;;;;;;;0.50;49.07;101703.27;107654;1254;109667;-64
2023/03/30 00:27:03;;;;;;;;;;;;;;;0.50;49.45;101703.79;107619;1255;108278;-63
2023/03/30 00:29:31;;;;;;;;;;;;;;;0.50;49.49;101705.55;107639;1253;97829;-65
2023/03/30 00:32:00;;;;;;;;;;;;;;;0.49;49.57;101704.91;107676;1254;97711;-64
2023/03/30 00:34:28;;;;;;;;;;;;;;;0.49;49.67;101707.20;107673;1254;112183;-64
2023/03/30 00:36:56;;;;;;;;;;;;;;;0.44;49.81;101705.56;107618;1254;109000;-64
2023/03/30 00:39:25;;;;;;;;;;;;;;;0.42;49.86;101702.11;107658;1254;109492;-64
2023/03/30 00:41:53;;;;;;;;;;;;;;;0.39;49.78;101707.66;107664;1254;97971;-63
2023/03/30 00:44:41;;;;;;;;;;;;;;;0.36;49.77;101702.98;107655;1253;97825;-63
2023/03/30 00:47:09;;;;;;;;;;;;;;;0.30;49.98;101704.59;107707;1254;111230;-64
2023/03/30 00:49:38;;;;;;;;;;;;;;;0.21;50.29;101707.87;107673;1254;109011;-64
2023/03/30 00:52:07;;;;;;;;;;;;;;;0.11;50.31;101710.10;107584;1254;108364;-64
2023/03/30 00:54:35;;;;;;;;;;;;;;;0.04;50.81;101710.31;107613;1252;97864;-62
2023/03/30 00:57:05;;;;;;;;;;;;;;;-0.03;50.56;101715.27;107674;1254;97716;-63
2023/03/30 00:59:33;;;;;;;;;;;;;;;-0.10;51.14;101714.94;107682;1254;111291;-64
2023/03/30 01:02:06;;;;;;;;;;;;;;;-0.13;51.14;101714.68;107687;1254;109356;-65
2023/03/30 01:04:36;;;;;;;;;;;;;;;-0.17;51.13;101716.90;107640;1254;107560;-64
2023/03/30 01:07:04;;;;;;;;;;;;;;;-0.17;50.62;101717.77;107720;1252;97819;-66
2023/03/30 01:09:35;;;;;;;;;;;;;;;-0.13;50.89;101722.45;107663;1253;97825;-64
2023/03/30 01:12:04;;;;;;;;;;;;;;;-0.13;51.03;101720.15;107605;1254;111485;-63
2023/03/30 01:14:32;;;;;;;;;;;;;;;-0.13;51.18;101724.03;107715;1254;108977;-66
2023/03/30 01:17:08;;;;;;;;;;;;;;;-0.14;51.16;101725.65;107624;1254;107992;-63
2023/03/30 01:20:11;;;;;;;;;;;;;;;-0.17;51.65;101725.87;107620;1252;97844;-63
2023/03/30 01:22:40;;;;;;;;;;;;;;;-0.22;51.79;101726.05;107677;1252;98037;-64
2023/03/30 01:25:25;;;;;;;;;;;;;;;-0.27;52.12;101726.17;107661;1254;111206;-64
2023/03/30 01:27:56;;;;;;;;;;;;;;;-0.34;51.96;101731.13;107708;1254;109907;-63
2023/03/30 01:30:43;;;;;;;;;;;;;;;-0.39;51.88;101727.37;107682;1253;109133;-64
2023/03/30 01:33:30;;;;;;;;;;;;;;;-0.42;52.16;101735.75;107632;1253;97863;-63
2023/03/30 01:36:05;;;;;;;;;;;;;;;-0.47;52.35;101733.92;107684;1256;97695;-63
2023/03/30 01:38:45;;;;;;;;;;;;;;;-0.54;52.45;101734.81;107636;1254;112328;-62
2023/03/30 01:41:13;;;;;;;;;;;;;;;-0.59;52.47;101741.48;107682;1254;109189;-64
2023/03/30 01:43:48;;;;;;;;;;;;;;;-0.62;52.22;101742.78;107604;1254;107707;-65
2023/03/30 01:46:23;;;;;;;;;;;;;;;-0.62;52.50;101745.25;107657;1256;97911;-64
2023/03/30 01:49:11;;;;;;;;;;;;;;;-0.64;52.42;101741.80;107714;1254;97914;-63
2023/03/30 01:51:41;;;;;;;;;;;;;;;-0.68;52.53;101741.38;107683;1253;112680;-63
2023/03/30 01:54:12;;;;;;;;;;;;;;;-0.73;52.62;101747.31;107606;1254;109463;-62
2023/03/30 01:56:45;;;;;;;;;;;;;;;-0.78;52.38;101748.13;107611;1254;106694;-63
2023/03/30 01:59:26;;;;;;;;;;;;;;;-0.82;52.88;101746.11;107586;1254;97860;-65
2023/03/30 02:01:59;;;;;;;;;;;;;;;-0.86;52.86;101743.76;107679;1254;97816;-63
2023/03/30 02:04:29;;;;;;;;;;;;;;;-0.88;53.07;101747.51;107696;1254;112092;-64
2023/03/30 02:06:59;;;;;;;;;;;;;;;-0.92;53.24;101749.02;107621;1252;108395;-63
2023/03/30 02:09:29;;;;;;;;;;;;;;;-0.96;53.19;101748.59;107683;1254;107558;-64
2023/03/30 02:11:59;;;;;;;;;;;;;;;-0.99;53.25;101748.83;107598;1254;97828;-62
2023/03/30 02:14:31;;;;;;;;;;;;;;;-1.05;53.54;101749.32;107617;1252;97738;-62
2023/03/30 02:17:02;;;;;;;;;;;;;;;-1.11;53.41;101754.92;107627;1254;110437;-63
2023/03/30 02:19:32;;;;;;;;;;;;;;;-1.16;53.65;101757.52;107663;1254;109798;-63
2023/03/30 02:22:01;;;;;;;;;;;;;;;-1.23;54.64;101755.58;107655;1253;107363;-64
2023/03/30 02:24:31;;;;;;;;;;;;;;;-1.30;54.63;101758.36;107641;1254;97804;-63
2023/03/30 02:27:03;;;;;;;;;;;;;;;-1.32;54.54;101760.36;107688;1256;98365;-64
2023/03/30 02:29:34;;;;;;;;;;;;;;;-1.32;54.32;101762.11;107630;1254;110804;-62
2023/03/30 02:32:03;;;;;;;;;;;;;;;-1.32;54.15;101762.45;107502;1255;109724;-63
2023/03/30 02:34:50;;;;;;;;;;;;;;;-1.33;54.51;101763.02;107700;1253;108610;-64
2023/03/30 02:37:23;;;;;;;;;;;;;;;-1.36;54.39;101769.24;107672;1256;97880;-63
2023/03/30 02:40:12;;;;;;;;;;;;;;;-1.38;54.62;101773.85;107704;1254;97804;-63
2023/03/30 02:43:02;;;;;;;;;;;;;;;-1.44;55.12;101773.64;107702;1254;110882;-62
2023/03/30 02:45:50;;;;;;;;;;;;;;;-1.49;55.07;101784.83;107692;1254;109462;-63
2023/03/30 02:48:36;;;;;;;;;;;;;;;-1.51;54.61;101792.27;107581;1254;108867;-64
2023/03/30 02:51:05;;;;;;;;;;;;;;;-1.53;55.05;101796.36;107591;1254;97921;-64
2023/03/30 02:53:54;;;;;;;;;;;;;;;-1.55;55.30;101796.57;107389;1254;97821;-63
2023/03/30 02:56:40;;;;;;;;;;;;;;;-1.57;54.95;101798.88;107623;1254;111089;-65
2023/03/30 02:59:16;;;;;;;;;;;;;;;-1.55;54.85;101798.70;107635;1254;109064;-63
2023/03/30 03:01:52;;;;;;;;;;;;;;;-1.58;55.24;101801.91;107730;1254;108534;-62
2023/03/30 03:04:21;;;;;;;;;;;;;;;-1.61;54.76;101803.02;107692;1254;97893;-63
2023/03/30 03:07:09;;;;;;;;;;;;;;;-1.62;55.26;101804.61;107601;1254;97871;-63
2023/03/30 03:09:42;;;;;;;;;;;;;;;-1.63;55.04;101804.30;107692;1254;111407;-62
2023/03/30 03:12:11;;;;;;;;;;;;;;;-1.60;55.34;101806.70;107693;1254;109027;-62
2023/03/30 03:14:42;;;;;;;;;;;;;;;-1.53;55.22;101810.80;107638;1256;107632;-63
2023/03/30 03:17:14;;;;;;;;;;;;;;;-1.45;55.51;101808.50;107606;1254;97906;-63
2023/03/30 03:19:45;;;;;;;;;;;;;;;-1.41;55.21;101811.77;107621;1254;97705;-63
2023/03/30 03:22:14;;;;;;;;;;;;;;;-1.36;55.27;101809.17;107614;1254;111612;-65
2023/03/30 03:24:43;;;;;;;;;;;;;;;-1.34;55.03;101811.42;107601;1254;109756;-63
2023/03/30 03:27:38;;;;;;;;;;;;;;;-1.32;54.85;101811.39;107611;1254;107663;-63
2023/03/30 03:30:18;;;;;;;;;;;;;;;-1.32;54.37;101811.20;107623;1256;97844;-64
2023/03/30 03:32:54;;;;;;;;;;;;;;;-1.32;54.43;101810.69;107730;1254;97821;-63
2023/03/30 03:35:24;;;;;;;;;;;;;;;-1.34;54.47;101813.55;107657;1254;112260;-63
2023/03/30 03:37:52;;;;;;;;;;;;;;;-1.38;54.53;101818.39;107618;1254;109656;-62
2023/03/30 03:40:20;;;;;;;;;;;;;;;-1.42;54.44;101821.80;107576;1254;108541;-64
2023/03/30 03:42:49;;;;;;;;;;;;;;;-1.47;54.34;101826.65;107677;1255;97826;-64
2023/03/30 03:45:18;;;;;;;;;;;;;;;-1.48;54.80;101825.45;107674;1254;97812;-62
2023/03/30 03:47:58;;;;;;;;;;;;;;;-1.52;55.36;101829.59;107634;1254;112009;-62
2023/03/30 03:50:40;;;;;;;;;;;;;;;-1.56;54.92;101831.25;107695;1254;109931;-63
2023/03/30 03:53:09;;;;;;;;;;;;;;;-1.57;54.39;101827.73;107448;1257;108305;-63
2023/03/30 03:55:37;;;;;;;;;;;;;;;-1.54;54.83;101829.63;107403;1254;97815;-62
2023/03/30 03:58:06;;;;;;;;;;;;;;;-1.52;54.83;101825.02;107600;1254;98622;-63
2023/03/30 04:00:36;;;;;;;;;;;;;;;-1.53;54.71;101824.86;107571;1254;111590;-62
2023/03/30 04:03:05;;;;;;;;;;;;;;;-1.53;54.62;101829.77;107637;1254;110774;-64
2023/03/30 04:05:34;;;;;;;;;;;;;;;-1.54;54.72;101831.92;107647;1254;107536;-63
2023/03/30 04:08:02;;;;;;;;;;;;;;;-1.56;54.68;101831.59;107489;1257;98286;-64
2023/03/30 04:10:31;;;;;;;;;;;;;;;-1.56;54.77;101834.41;107575;1254;97960;-64
2023/03/30 04:13:20;;;;;;;;;;;;;;;-1.55;54.53;101839.49;107395;1257;111512;-63
2023/03/30 04:16:18;;;;;;;;;;;;;;;-1.50;54.60;101842.22;107099;1254;109419;-63
2023/03/30 04:19:07;;;;;;;;;;;;;;;-1.41;54.67;101844.32;107212;1254;107812;-63
2023/03/30 04:21:54;;;;;;;;;;;;;;;-1.34;54.64;101841.53;107694;1256;97810;-63
2023/03/30 04:24:34;;;;;;;;;;;;;;;-1.32;54.55;101842.89;107661;1253;97764;-62
2023/03/30 04:27:41;;;;;;;;;;;;;;;-1.31;54.70;101845.16;107714;1254;111445;-63
2023/03/30 04:30:29;;;;;;;;;;;;;;;-1.28;54.23;101844.90;107706;1254;109070;-64
2023/03/30 04:33:36;;;;;;;;;;;;;;;-1.30;54.14;101843.02;107508;1257;108498;-64
2023/03/30 04:36:37;;;;;;;;;;;;;;;-1.35;54.02;101845.59;107261;1257;97870;-63
2023/03/30 04:39:29;;;;;;;;;;;;;;;-1.35;54.16;101849.64;107514;1256;97806;-66
2023/03/30 04:42:18;;;;;;;;;;;;;;;-1.33;53.88;101850.99;107612;1256;111863;-64
2023/03/30 04:45:17;;;;;;;;;;;;;;;-1.22;54.06;101866.42;107605;1256;109991;-62
2023/03/30 04:48:09;;;;;;;;;;;;;;;-1.16;53.55;101867.38;107623;1254;107682;-63
2023/03/30 04:51:00;;;;;;;;;;;;;;;-1.16;53.47;101867.02;107607;1254;97785;-63
2023/03/30 04:53:38;;;;;;;;;;;;;;;-1.13;53.49;101863.77;107653;1254;97723;-62
2023/03/30 04:56:32;;;;;;;;;;;;;;;-1.09;53.42;101870.55;107685;1260;111942;-63
2023/03/30 04:59:09;;;;;;;;;;;;;;;-1.07;53.35;101874.73;107675;1254;110148;-65
2023/03/30 05:02:11;;;;;;;;;;;;;;;-1.06;52.92;101875.77;107283;1254;107945;-61
2023/03/30 05:04:52;;;;;;;;;;;;;;;-1.03;53.09;101877.99;107657;1253;97816;-62
2023/03/30 05:07:41;;;;;;;;;;;;;;;-1.01;52.87;101878.30;107282;1257;97780;-62
2023/03/30 05:10:28;;;;;;;;;;;;;;;-0.98;52.76;101877.88;107621;1254;111182;-62
2023/03/30 05:13:35;;;;;;;;;;;;;;;-0.95;52.67;101874.30;107050;1261;109338;-63
2023/03/30 05:16:27;;;;;;;;;;;;;;;-0.92;52.32;101878.45;106953;1264;108387;-64
2023/03/30 05:19:14;;;;;;;;;;;;;;;-0.88;52.48;101881.55;107470;1254;97806;-63
2023/03/30 05:21:58;;;;;;;;;;;;;;;-0.84;52.15;101877.92;107674;1254;97834;-63
2023/03/30 05:24:51;;;;;;;;;;;;;;;-0.80;52.63;101876.77;107599;1254;111867;-63
2023/03/30 05:27:33;;;;;;;;;;;;;;;-0.72;51.97;101882.05;107649;1254;109207;-62
2023/03/30 05:30:19;;;;;;;;;;;;;;;-0.65;52.21;101875.36;107692;1254;108937;-64
2023/03/30 05:33:16;;;;;;;;;;;;;;;-0.59;51.75;101874.52;107574;1254;97870;-66
2023/03/30 05:36:18;;;;;;;;;;;;;;;-0.57;51.57;101874.63;107482;1254;97893;-63
2023/03/30 05:39:09;;;;;;;;;;;;;;;-0.53;51.34;101874.19;107470;1254;111341;-64
2023/03/30 05:42:04;;;;;;;;;;;;;;;-0.51;51.17;101877.84;107585;1254;109037;-66
2023/03/30 05:44:43;;;;;;;;;;;;;;;-0.45;51.11;101873.65;107701;1254;108199;-63
2023/03/30 05:47:51;;;;;;;;;;;;;;;-0.38;51.23;101872.96;107647;1256;97879;-63
2023/03/30 05:50:35;;;;;;;;;;;;;;;-0.31;51.25;101871.55;107640;1256;97716;-63
2023/03/30 05:53:05;;;;;;;;;;;;;;;-0.26;50.99;101862.08;107682;1254;111723;-63
2023/03/30 05:56:06;;;;;;;;;;;;;;;-0.21;50.94;101862.11;107303;1254;109235;-63
2023/03/30 05:58:46;;;;;;;;;;;;;;;-0.15;50.48;101863.73;107687;1254;106005;-64
2023/03/30 06:01:39;;;;;;;;;;;;;;;-0.09;50.76;101862.69;107667;1254;97899;-62
2023/03/30 06:04:10;;;;;;;;;;;;;;;-0.04;50.56;101860.78;107721;1254;97842;-62
2023/03/30 06:06:39;;;;;;;;;;;;;;;0.03;50.53;101862.35;107727;1254;112304;-64
2023/03/30 06:09:10;;;;;;;;;;;;;;;0.10;50.57;101865.34;107612;1256;107279;-65
2023/03/30 06:11:38;;;;;;;;;;;;;;;0.18;50.50;101865.51;107699;1254;108266;-63
2023/03/30 06:14:16;;;;;;;;;;;;;;;0.27;50.32;101868.95;107669;1255;97921;-64
2023/03/30 06:16:55;;;;;;;;;;;;;;;0.35;50.22;101869.06;107731;1251;97768;-63
2023/03/30 06:19:24;;;;;;;;;;;;;;;0.46;49.54;101867.55;107564;1254;111367;-63
2023/03/30 06:21:53;;;;;;;;;;;;;;;0.56;49.33;101865.69;107634;1254;110133;-64
2023/03/30 06:24:47;;;;;;;;;;;;;;;0.67;49.23;101869.94;107372;1254;106862;-64
2023/03/30 06:27:18;;;;;;;;;;;;;;;0.74;49.34;101865.16;107612;1254;97832;-63
2023/03/30 06:29:47;;;;;;;;;;;;;;;0.82;49.34;101863.83;107588;1251;97740;-63
2023/03/30 06:32:16;;;;;;;;;;;;;;;0.92;49.16;101859.46;107553;1254;111834;-64
2023/03/30 06:35:00;;;;;;;;;;;;;;;1.03;49.21;101865.31;107700;1254;110262;-64
2023/03/30 06:37:33;;;;;;;;;;;;;;;1.13;49.07;101857.40;107675;1254;107720;-64
2023/03/30 06:40:36;;;;;;;;;;;;;;;1.22;48.87;101861.00;107612;1254;97823;-63
2023/03/30 06:42:56;;;;;;;;;;;;;;;1.37;47.96;101860.00;107648;1254;97717;-64
2023/03/30 06:45:42;;;;;;;;;;;;;;;1.51;47.46;101864.88;107714;1254;112352;-64
2023/03/30 06:48:10;;;;;;;;;;;;;;;1.62;46.38;101857.79;107658;1255;109981;-63
2023/03/30 06:50:39;;;;;;;;;;;;;;;1.74;46.84;101856.66;107694;1254;107675;-65
2023/03/30 06:53:18;;;;;;;;;;;;;;;1.86;47.00;101857.84;107677;1254;97806;-63
2023/03/30 06:55:51;;;;;;;;;;;;;;;1.96;46.45;101851.34;107736;1254;97854;-63
2023/03/30 06:58:21;;;;;;;;;;;;;;;2.05;46.46;101851.91;107715;1254;111766;-64
2023/03/30 07:00:50;;;;;;;;;;;;;;;2.14;45.98;101850.84;107622;1255;109082;-64
2023/03/30 07:03:45;;;;;;;;;;;;;;;2.27;45.37;101845.11;107588;1254;108454;-63
2023/03/30 07:06:24;;;;;;;;;;;;;;;2.39;45.28;101843.77;107623;1253;97835;-62
2023/03/30 07:08:53;;;;;;;;;;;;;;;2.51;45.05;101838.88;107533;1257;97713;-63
2023/03/30 07:11:25;;;;;;;;;;;;;;;2.63;45.11;101840.57;107619;1254;111048;-64
2023/03/30 07:13:55;;;;;;;;;;;;;;;2.73;45.16;101832.92;107485;1254;109880;-64
2023/03/30 07:16:24;;;;;;;;;;;;;;;2.83;44.23;101836.60;107667;1254;108161;-64
2023/03/30 07:18:53;;;;;;;;;;;;;;;2.97;43.97;101829.32;107553;1257;98563;-63
2023/03/30 07:21:24;;;;;;;;;;;;;;;3.13;44.14;101826.40;107485;1253;97931;-63
2023/03/30 07:23:53;;;;;;;;;;;;;;;3.24;42.35;101824.73;107593;1254;111661;-63
2023/03/30 07:26:29;;;;;;;;;;;;;;;3.29;42.31;101823.08;107703;1254;109623;-64
2023/03/30 07:29:04;;;;;;;;;;;;;;;3.37;42.83;101816.53;107621;1256;108302;-62
2023/03/30 07:31:33;;;;;;;;;;;;;;;3.46;42.71;101816.02;107664;1254;97963;-62
2023/03/30 07:34:03;;;;;;;;;;;;;;;3.55;42.91;101813.30;107654;1254;98040;-62
2023/03/30 07:36:35;;;;;;;;;;;;;;;3.68;42.83;101810.48;107618;1254;111610;-63
2023/03/30 07:39:03;;;;;;;;;;;;;;;3.79;42.57;101809.30;107555;1254;109517;-63
2023/03/30 07:41:32;;;;;;;;;;;;;;;3.92;42.21;101804.11;107652;1254;107629;-63
2023/03/30 07:44:01;;;;;;;;;;;;;;;4.07;42.31;101801.52;107672;1254;97819;-64
2023/03/30 07:46:30;;;;;;;;;;;;;;;4.16;40.96;101806.59;107514;1253;97740;-62
2023/03/30 07:48:59;;;;;;;;;;;;;;;4.25;40.43;101800.36;107662;1255;111170;-63
2023/03/30 07:51:27;;;;;;;;;;;;;;;4.34;39.42;101795.69;107483;1254;110099;-64
2023/03/30 07:54:18;;;;;;;;;;;;;;;4.47;40.17;101803.05;107659;1253;108569;-64
2023/03/30 07:57:10;;;;;;;;;;;;;;;4.56;39.07;101799.66;107618;1254;97816;-62
2023/03/30 07:59:39;;;;;;;;;;;;;;;4.65;38.38;101797.08;107547;1254;97825;-64
2023/03/30 08:02:15;;;;;;;;;;;;;;;4.74;38.95;101785.98;107721;1252;111335;-65
2023/03/30 08:04:46;;;;;;;;;;;;;;;4.84;38.46;101787.30;107731;1254;108707;-63
2023/03/30 08:07:19;;;;;;;;;;;;;;;4.93;37.05;101790.80;107514;1253;107703;-62
2023/03/30 08:09:48;;;;;;;;;;;;;;;5.00;36.65;101788.84;107462;1253;97810;-64
2023/03/30 08:12:17;;;;;;;;;;;;;;;5.07;36.82;101783.56;107676;1254;97711;-64
2023/03/30 08:14:45;;;;;;;;;;;;;;;5.15;36.62;101782.57;107670;1254;111545;-64
2023/03/30 08:17:13;;;;;;;;;;;;;;;5.29;36.99;101773.02;107698;1253;109626;-65
2023/03/30 08:19:41;;;;;;;;;;;;;;;5.42;37.05;101768.27;107593;1253;107168;-63
2023/03/30 08:22:10;;;;;;;;;;;;;;;5.58;36.84;101764.42;107668;1253;98310;-63
2023/03/30 08:24:38;;;;;;;;;;;;;;;5.73;36.06;101762.08;107506;1252;97807;-63
2023/03/30 08:27:06;;;;;;;;;;;;;;;5.91;36.45;101760.77;107589;1253;112053;-64
2023/03/30 08:29:35;;;;;;;;;;;;;;;6.08;36.00;101758.14;107578;1254;109258;-62
2023/03/30 08:32:03;;;;;;;;;;;;;;;6.21;35.23;101761.55;107599;1256;107629;-63
2023/03/30 08:34:32;;;;;;;;;;;;;;;6.36;35.60;101763.90;107689;1254;98616;-64
2023/03/30 08:37:04;;;;;;;;;;;;;;;6.54;34.78;101755.63;107681;1256;97898;-64
2023/03/30 08:39:32;;;;;;;;;;;;;;;6.69;35.09;101752.98;107702;1251;111362;-64
2023/03/30 08:42:11;;;;;;;;;;;;;;;6.83;34.28;101752.41;107658;1256;111778;-66
2023/03/30 08:44:41;;;;;;;;;;;;;;;6.93;33.30;101745.94;107650;1254;107618;-65
2023/03/30 08:47:30;;;;;;;;;;;;;;;7.07;33.63;101745.13;107699;1253;97852;-62
2023/03/30 08:50:21;;;;;;;;;;;;;;;7.30;33.40;101737.70;107767;1254;97825;-64
2023/03/30 08:52:51;;;;;;;;;;;;;;;7.50;33.44;101728.34;107587;1254;111621;-64
2023/03/30 08:55:27;;;;;;;;;;;;;;;7.70;33.41;101724.45;107614;1254;110014;-63
2023/03/30 08:57:58;;;;;;;;;;;;;;;7.84;32.35;101720.36;107706;1254;108215;-65
2023/03/30 09:00:35;;;;;;;;;;;;;;;8.01;32.10;101718.25;107674;1254;98042;-64
2023/03/30 09:03:14;;;;;;;;;;;;;;;8.25;32.41;101713.19;107684;1256;97931;-66
2023/03/30 09:06:03;;;;;;;;;;;;;;;8.56;32.13;101709.29;107719;1253;111536;-64
2023/03/30 09:08:32;;;;;;;;;;;;;;;8.84;32.06;101714.60;107639;1253;108567;-67
2023/03/30 09:11:03;;;;;;;;;;;;;;;9.06;31.01;101708.11;107620;1256;108422;-66
2023/03/30 09:13:37;;;;;;;;;;;;;;;9.29;31.08;101699.08;107589;1254;97838;-65
2023/03/30 09:16:17;;;;;;;;;;;;;;;9.62;30.69;101700.63;107635;1254;97783;-64
2023/03/30 09:18:50;;;;;;;;;;;;;;;9.84;29.18;101699.02;107714;1253;112545;-64
2023/03/30 09:21:24;;;;;;;;;;;;;;;10.17;30.35;101693.98;107534;1252;109811;-66
2023/03/30 09:23:55;;;;;;;;;;;;;;;10.61;30.30;101683.66;107596;1253;108669;-65
2023/03/30 09:26:33;;;;;;;;;;;;;;;11.02;28.77;101682.23;107557;1256;97985;-63
2023/03/30 09:29:09;;;;;;;;;;;;;;;11.36;26.41;101675.18;107620;1254;97800;-63
2023/03/30 09:31:42;;;;;;;;;;;;;;;11.88;26.81;101666.61;107635;1253;110310;-65
2023/03/30 09:34:27;;;;;;;;;;;;;;;12.74;27.33;101661.67;107667;1252;109234;-65
2023/03/30 09:37:02;;;;;;;;;;;;;;;13.56;24.92;101658.20;107686;1256;109101;-64
2023/03/30 09:39:31;;;;;;;;;;;;;;;14.30;25.15;101651.23;107716;1254;97832;-64
2023/03/30 09:42:12;;;;;;;;;;;;;;;15.08;24.85;101641.62;107747;1253;97916;-65
2023/03/30 09:44:50;;;;;;;;;;;;;;;15.72;24.48;101638.46;107733;1255;111840;-64
2023/03/30 09:47:25;;;;;;;;;;;;;;;16.40;23.99;101637.52;107724;1254;108749;-65
2023/03/30 09:49:54;;;;;;;;;;;;;;;16.99;24.24;101635.55;107662;1254;107588;-64
2023/03/30 09:52:24;;;;;;;;;;;;;;;17.66;23.83;101626.14;107667;1254;97838;-64
2023/03/30 09:54:53;;;;;;;;;;;;;;;18.13;21.57;101621.73;107564;1254;97715;-64
2023/03/30 09:57:26;;;;;;;;;;;;;;;18.65;22.82;101615.73;107625;1253;112264;-65
2023/03/30 09:59:55;;;;;;;;;;;;;;;19.28;22.65;101614.69;107530;1252;109443;-65
2023/03/30 10:02:26;;;;;;;;;;;;;;;19.89;22.36;101611.20;107528;1253;108190;-64
2023/03/30 10:05:10;;;;;;;;;;;;;;;20.39;19.75;101606.33;106741;1253;1171678;-64
2023/03/30 10:07:40;;;;;;;;;;;;;;;20.22;17.65;101610.88;107618;1254;97968;-67
2023/03/30 10:10:14;;;;;;;;;;;;;;;20.34;18.78;101602.74;107492;1253;112068;-65
2023/03/30 10:12:43;;;;;;;;;;;;;;;20.72;17.58;101601.53;107742;1251;109454;-66
2023/03/30 10:15:20;;;;;;;;;;;;;;;20.84;17.64;101599.61;107673;1256;107778;-66
2023/03/30 10:17:58;;;;;;;;;;;;;;;21.29;18.11;101594.66;107614;1254;97918;-67
2023/03/30 10:20:35;;;;;;;;;;;;;;;21.39;16.51;101598.65;107697;1254;97826;-67
2023/03/30 10:23:14;;;;;;;;;;;;;;;21.45;15.70;101593.35;107684;1254;111796;-67
2023/03/30 10:25:42;;;;;;;;;;;;;;;21.46;15.72;101589.06;107677;1252;107824;-67
2023/03/30 10:28:20;;;;;;;;;;;;;;;21.61;16.07;101579.57;107556;1254;109735;-67
2023/03/30 10:30:51;;;;;;;;;;;;;;;22.17;17.44;101573.21;107699;1256;97813;-67
2023/03/30 10:33:19;;;;;;;;;;;;;;;22.65;16.98;101564.40;107676;1252;97852;-67
2023/03/30 10:35:52;;;;;;;;;;;;;;;23.23;16.14;101561.09;107453;1254;111904;-66
2023/03/30 10:38:21;;;;;;;;;;;;;;;23.42;15.72;101559.45;107615;1254;109766;-66
2023/03/30 10:40:54;;;;;;;;;;;;;;;23.27;14.34;101565.53;107653;1254;107745;-68
2023/03/30 10:43:26;;;;;;;;;;;;;;;22.89;13.82;101559.49;107484;1254;97733;-65
2023/03/30 10:45:59;;;;;;;;;;;;;;;22.37;13.68;101560.52;107731;1254;97720;-67
2023/03/30 10:49:05;;;;;;;;;;;;;;;22.60;14.96;101549.52;107675;1254;111922;-66
2023/03/30 10:51:50;;;;;;;;;;;;;;;22.69;14.13;101544.69;107713;1253;110988;-66
2023/03/30 10:54:19;;;;;;;;;;;;;;;22.99;14.08;101543.48;107685;1256;107853;-66
2023/03/30 10:56:47;;;;;;;;;;;;;;;23.10;13.84;101545.25;107661;1256;97912;-65
2023/03/30 10:59:22;;;;;;;;;;;;;;;23.13;13.36;101531.89;107648;1256;97876;-66
2023/03/30 11:01:51;;;;;;;;;;;;;;;23.10;14.11;101531.80;107647;1253;111670;-65
2023/03/30 11:04:38;;;;;;;;;;;;;;;23.42;13.83;101534.98;107511;1254;110420;-67
2023/03/30 11:07:12;;;;;;;;;;;;;;;23.48;13.16;101532.32;107603;1253;108538;-65
2023/03/30 11:09:45;;;;;;;;;;;;;;;23.68;13.51;101531.52;107517;1254;97894;-65
2023/03/30 11:12:16;;;;;;;;;;;;;;;24.11;14.08;101525.13;107615;1254;97893;-67
2023/03/30 11:14:44;;;;;;;;;;;;;;;24.77;14.90;101515.67;107701;1251;111320;-66
2023/03/30 11:17:22;;;;;;;;;;;;;;;25.51;14.48;101504.71;107701;1254;108715;-66
2023/03/30 11:19:54;;;;;;;;;;;;;;;26.04;13.52;101507.45;107603;1254;108612;-67
2023/03/30 11:22:52;;;;;;;;;;;;;;;25.77;12.27;101497.31;107677;1253;97806;-67
2023/03/30 11:25:26;;;;;;;;;;;;;;;25.73;12.02;101493.05;107517;1254;97806;-66
2023/03/30 11:27:59;;;;;;;;;;;;;;;24.95;11.74;101492.58;107683;1254;111834;-67
2023/03/30 11:30:32;;;;;;;;;;;;;;;24.51;11.88;101493.79;107647;1254;109596;-67
2023/03/30 11:33:16;;;;;;;;;;;;;;;24.16;12.36;101489.02;107677;1253;107508;-67
2023/03/30 11:35:46;;;;;;;;;;;;;;;23.71;12.68;101481.16;107661;1254;97857;-67
2023/03/30 11:38:34;;;;;;;;;;;;;;;23.27;12.72;101472.73;107516;1254;97812;-65
2023/03/30 11:41:11;;;;;;;;;;;;;;;23.30;13.55;101468.51;107683;1254;111778;-66
2023/03/30 11:43:40;;;;;;;;;;;;;;;23.49;14.65;101462.15;107690;1253;109667;-66
2023/03/30 11:46:11;;;;;;;;;;;;;;;23.80;14.03;101458.95;107652;1254;108024;-66
2023/03/30 11:48:56;;;;;;;;;;;;;;;23.87;13.80;101456.14;107683;1254;97826;-65
2023/03/30 11:51:44;;;;;;;;;;;;;;;23.60;13.76;101455.73;107775;1253;97697;-64
2023/03/30 11:54:39;;;;;;;;;;;;;;;23.37;14.36;101453.96;107687;1254;111688;-66
2023/03/30 11:57:22;;;;;;;;;;;;;;;22.88;13.12;101450.14;107729;1254;108743;-66
2023/03/30 11:59:51;;;;;;;;;;;;;;;22.63;13.66;101443.90;107598;1253;107717;-66
2023/03/30 12:02:30;;;;;;;;;;;;;;;22.59;14.11;101444.88;107605;1253;97796;-66
2023/03/30 12:05:20;;;;;;;;;;;;;;;22.54;13.51;101442.35;107694;1254;97825;-66
2023/03/30 12:07:55;;;;;;;;;;;;;;;22.62;14.21;101432.08;107649;1254;112169;-66
2023/03/30 12:10:37;;;;;;;;;;;;;;;22.92;13.14;101417.07;107584;1252;110780;-67
2023/03/30 12:13:11;;;;;;;;;;;;;;;23.08;13.66;101420.81;107721;1251;108832;-67
2023/03/30 12:15:39;;;;;;;;;;;;;;;23.10;12.65;101420.41;107642;1254;97812;-67
2023/03/30 12:18:18;;;;;;;;;;;;;;;23.25;12.67;101416.33;107715;1254;97931;-66
2023/03/30 12:21:08;;;;;;;;;;;;;;;23.05;12.40;101418.63;107652;1253;111795;-65
2023/03/30 12:23:53;;;;;;;;;;;;;;;23.32;12.83;101404.89;107694;1253;109339;-66
2023/03/30 12:26:27;;;;;;;;;;;;;;;24.01;13.19;101402.56;107612;1252;108852;-67
2023/03/30 12:28:58;;;;;;;;;;;;;;;24.34;11.86;101402.27;107486;1254;97941;-66
2023/03/30 12:31:46;;;;;;;;;;;;;;;24.10;12.06;101403.05;107582;1256;97774;-65
2023/03/30 12:34:14;;;;;;;;;;;;;;;24.35;12.02;101399.78;107653;1254;111348;-66
2023/03/30 12:36:48;;;;;;;;;;;;;;;25.04;11.94;101396.81;107632;1254;109945;-66
2023/03/30 12:39:29;;;;;;;;;;;;;;;25.85;11.56;101391.18;107680;1254;107750;-66
2023/03/30 12:42:05;;;;;;;;;;;;;;;26.45;11.30;101382.39;107664;1253;97900;-67
2023/03/30 12:44:46;;;;;;;;;;;;;;;26.62;10.61;101381.27;107696;1253;97704;-67
2023/03/30 12:47:21;;;;;;;;;;;;;;;26.84;11.22;101375.05;107713;1254;110570;-67
2023/03/30 12:49:59;;;;;;;;;;;;;;;27.71;10.85;101372.48;107687;1253;109732;-66
2023/03/30 12:52:33;;;;;;;;;;;;;;;28.41;9.73;101372.28;107665;1254;108280;-67
2023/03/30 12:55:12;;;;;;;;;;;;;;;28.12;9.42;101366.11;107708;1254;97860;-66
2023/03/30 12:57:52;;;;;;;;;;;;;;;28.06;10.18;101360.83;107647;1252;97774;-67
2023/03/30 13:00:27;;;;;;;;;;;;;;;29.01;10.18;101358.14;107758;1254;111381;-67
2023/03/30 13:03:08;;;;;;;;;;;;;;;29.76;9.08;101352.63;107664;1251;110529;-67
2023/03/30 13:05:41;;;;;;;;;;;;;;;30.08;9.07;101349.80;107706;1252;109051;-67
2023/03/30 13:08:31;;;;;;;;;;;;;;;30.56;8.33;101347.96;107501;1251;97836;-68
2023/03/30 13:11:07;;;;;;;;;;;;;;;30.70;8.69;101341.89;107681;1251;97828;-66